createdAt,value
2023-06-20T00:01:58.056Z,100349.84
2023-06-20T00:05:07.535Z,100350.03
2023-06-20T00:08:11.709Z,100353.28
2023-06-20T00:11:14.868Z,100360.19
2023-06-20T00:14:18.264Z,100360.94
2023-06-20T00:17:21.269Z,100356.09
2023-06-20T00:20:24.811Z,100353.53
2023-06-20T00:23:31.468Z,100350.50
2023-06-20T00:26:35.021Z,100353.09
2023-06-20T00:29:38.077Z,100349.84
2023-06-20T00:32:41.241Z,100333.66
2023-06-20T00:35:44.193Z,100348.59
2023-06-20T00:38:50.484Z,100339.06
2023-06-20T00:41:53.939Z,100332.81
2023-06-20T00:44:56.839Z,100337.00
2023-06-20T00:48:02.443Z,100338.69
2023-06-20T00:51:05.896Z,100336.78
2023-06-20T00:54:09.886Z,100332.03
2023-06-20T00:57:14.873Z,100329.69
2023-06-20T01:00:18.381Z,100322.91
2023-06-20T01:03:23.120Z,100332.34
2023-06-20T01:07:01.229Z,100328.84
2023-06-20T01:10:22.383Z,100332.06
2023-06-20T01:13:57.803Z,100332.13
2023-06-20T01:17:04.631Z,100331.75
2023-06-20T01:20:11.152Z,100336.53
2023-06-20T01:23:22.028Z,100323.56
2023-06-20T01:26:36.742Z,100317.78
2023-06-20T01:29:50.437Z,100325.00
2023-06-20T01:32:57.623Z,100318.53
2023-06-20T01:36:03.399Z,100316.66
2023-06-20T01:39:45.739Z,100323.50
2023-06-20T01:42:56.162Z,100322.84
2023-06-20T01:46:01.911Z,100307.91
2023-06-20T01:49:06.776Z,100306.91
2023-06-20T01:52:11.885Z,100313.66
2023-06-20T01:55:16.438Z,100315.34
2023-06-20T01:58:20.532Z,100324.69
2023-06-20T02:01:25.830Z,100320.75
2023-06-20T02:04:30.222Z,100317.81
2023-06-20T02:07:35.671Z,100313.69
2023-06-20T02:10:40.976Z,100312.19
2023-06-20T02:13:45.586Z,100313.22
2023-06-20T02:16:50.250Z,100308.78
2023-06-20T02:19:53.522Z,100310.38
2023-06-20T02:22:57.353Z,100309.31
2023-06-20T02:26:11.342Z,100313.25
2023-06-20T02:29:16.433Z,100319.53
2023-06-20T02:32:21.672Z,100319.38
2023-06-20T02:35:26.907Z,100326.56
2023-06-20T02:38:30.387Z,100321.34
2023-06-20T02:41:33.722Z,100320.25
2023-06-20T02:44:37.083Z,100322.22
2023-06-20T02:47:59.219Z,100321.44
2023-06-20T02:51:13.617Z,100326.16
2023-06-20T02:54:27.405Z,100328.63
2023-06-20T02:57:32.489Z,100334.03
2023-06-20T03:00:37.539Z,100340.34
2023-06-20T03:03:46.645Z,100334.88
2023-06-20T03:10:10.134Z,100328.56
2023-06-20T03:13:16.695Z,100333.63
2023-06-20T03:16:21.714Z,100346.31
2023-06-20T03:19:25.264Z,100350.13
2023-06-20T03:22:29.043Z,100347.66
2023-06-20T03:25:32.510Z,100353.47
2023-06-20T03:28:35.924Z,100354.97
2023-06-20T03:31:39.553Z,100360.50
2023-06-20T03:34:42.921Z,100352.59
2023-06-20T03:37:46.086Z,100350.00
2023-06-20T03:40:51.377Z,100347.13
2023-06-20T03:43:54.415Z,100351.69
2023-06-20T03:46:57.671Z,100360.84
2023-06-20T03:50:01.190Z,100366.47
2023-06-20T03:53:04.653Z,100366.38
2023-06-20T03:56:07.861Z,100364.88
2023-06-20T03:59:12.503Z,100381.59
2023-06-20T04:02:16.102Z,100396.25
2023-06-20T04:05:19.549Z,100402.03
2023-06-20T04:08:22.534Z,100398.75
2023-06-20T04:11:29.002Z,100403.53
2023-06-20T04:14:32.319Z,100402.19
2023-06-20T04:17:35.718Z,100401.41
2023-06-20T04:20:39.768Z,100397.31
2023-06-20T04:23:43.294Z,100403.22
2023-06-20T04:26:46.634Z,100398.59
2023-06-20T04:29:50.473Z,100406.97
2023-06-20T04:32:54.694Z,100402.97
2023-06-20T04:35:58.771Z,100410.06
2023-06-20T04:39:08.302Z,100403.97
2023-06-20T04:42:11.990Z,100403.13
2023-06-20T04:45:15.845Z,100411.63
2023-06-20T04:48:19.473Z,100405.13
2023-06-20T04:51:23.529Z,100403.63
2023-06-20T04:54:31.183Z,100407.22
2023-06-20T04:57:35.157Z,100400.97
2023-06-20T05:00:38.572Z,100404.47
2023-06-20T05:03:45.516Z,100407.22
2023-06-20T05:06:50.949Z,100398.84
2023-06-20T05:09:54.052Z,100401.34
2023-06-20T05:12:57.613Z,100399.50
2023-06-20T05:16:00.825Z,100403.47
2023-06-20T05:19:03.912Z,100404.34
2023-06-20T05:22:07.101Z,100406.53
2023-06-20T05:25:10.278Z,100411.41
2023-06-20T05:28:13.615Z,100412.81
2023-06-20T05:31:16.700Z,100410.34
2023-06-20T05:34:20.175Z,100403.03
2023-06-20T05:37:23.332Z,100413.13
2023-06-20T05:40:26.914Z,100420.72
2023-06-20T05:43:30.616Z,100416.72
2023-06-20T05:46:33.779Z,100420.09
2023-06-20T05:49:37.521Z,100424.72
2023-06-20T05:52:40.534Z,100421.22
2023-06-20T05:55:44.437Z,100423.78
2023-06-20T05:58:47.601Z,100416.00
2023-06-20T06:01:50.689Z,100426.63
2023-06-20T06:04:53.990Z,100426.88
2023-06-20T06:07:57.323Z,100433.72
2023-06-20T06:11:00.397Z,100437.75
2023-06-20T06:14:03.500Z,100446.06
2023-06-20T06:17:06.908Z,100439.00
2023-06-20T06:20:15.873Z,100444.34
2023-06-20T06:23:19.205Z,100435.69
2023-06-20T06:26:22.213Z,100446.09
2023-06-20T06:29:26.871Z,100438.75
2023-06-20T06:32:30.134Z,100444.56
2023-06-20T06:35:35.142Z,100446.34
2023-06-20T06:38:38.642Z,100449.13
2023-06-20T06:41:41.927Z,100446.56
2023-06-20T06:44:46.708Z,100451.63
2023-06-20T06:47:50.507Z,100442.53
2023-06-20T06:50:53.921Z,100443.03
2023-06-20T06:53:57.449Z,100447.06
2023-06-20T06:57:00.551Z,100443.53
2023-06-20T07:00:14.419Z,100448.13
2023-06-20T07:03:17.996Z,100456.97
2023-06-20T07:06:22.011Z,100458.72
2023-06-20T07:09:25.406Z,100464.03
2023-06-20T07:12:28.764Z,100465.28
2023-06-20T07:15:31.811Z,100464.78
2023-06-20T07:18:35.946Z,100463.00
2023-06-20T07:21:38.831Z,100461.72
2023-06-20T07:24:41.882Z,100466.97
2023-06-20T07:27:45.311Z,100460.63
2023-06-20T07:30:48.670Z,100458.56
2023-06-20T07:33:51.870Z,100455.75
2023-06-20T07:36:54.943Z,100451.41
2023-06-20T07:39:58.303Z,100461.44
2023-06-20T07:43:01.338Z,100455.38
2023-06-20T07:46:04.780Z,100466.72
2023-06-20T07:49:08.259Z,100449.44
2023-06-20T07:52:12.270Z,100447.28
2023-06-20T07:55:25.053Z,100457.84
2023-06-20T07:58:32.828Z,100443.56
2023-06-20T08:01:36.231Z,100449.50
2023-06-20T08:04:40.153Z,100443.28
2023-06-20T08:07:43.507Z,100448.00
2023-06-20T08:10:46.530Z,100450.75
2023-06-20T08:13:49.542Z,100457.38
2023-06-20T08:16:53.099Z,100459.13
2023-06-20T08:19:57.938Z,100457.16
2023-06-20T08:23:01.384Z,100455.09
2023-06-20T08:26:04.585Z,100464.25
2023-06-20T08:29:09.728Z,100459.63
2023-06-20T08:32:13.061Z,100464.66
2023-06-20T08:35:16.430Z,100461.16
2023-06-20T08:38:19.460Z,100455.28
2023-06-20T08:41:26.054Z,100440.47
2023-06-20T08:44:29.842Z,100459.66
2023-06-20T08:47:33.841Z,100458.03
2023-06-20T08:50:38.534Z,100457.94
2023-06-20T08:53:44.183Z,100455.28
2023-06-20T08:56:50.107Z,100447.97
2023-06-20T08:59:55.062Z,100457.88
2023-06-20T09:02:58.449Z,100451.44
2023-06-20T09:06:01.887Z,100453.19
2023-06-20T09:09:15.835Z,100449.13
2023-06-20T09:12:19.253Z,100449.28
2023-06-20T09:15:24.568Z,100455.38
2023-06-20T09:18:29.035Z,100453.16
2023-06-20T09:21:37.793Z,100453.28
2023-06-20T09:24:46.722Z,100447.00
2023-06-20T09:27:51.788Z,100444.94
2023-06-20T09:30:54.932Z,100449.03
2023-06-20T09:33:58.426Z,100451.03
2023-06-20T09:37:01.426Z,100457.22
2023-06-20T09:40:12.504Z,100457.16
2023-06-20T09:43:15.467Z,100465.13
2023-06-20T09:46:19.050Z,100459.22
2023-06-20T09:49:22.288Z,100463.69
2023-06-20T09:52:33.779Z,100454.09
2023-06-20T09:55:38.493Z,100456.38
2023-06-20T09:58:48.681Z,100442.81
2023-06-20T10:01:53.426Z,100441.19
2023-06-20T10:04:58.547Z,100438.22
2023-06-20T10:08:01.872Z,100435.31
2023-06-20T10:11:04.879Z,100438.09
2023-06-20T10:14:10.337Z,100445.41
2023-06-20T10:17:14.073Z,100447.81
2023-06-20T10:20:39.322Z,100446.69
2023-06-20T10:23:44.968Z,100447.78
2023-06-20T10:27:00.785Z,100441.44
2023-06-20T10:30:06.955Z,100439.19
2023-06-20T10:33:11.775Z,100432.47
2023-06-20T10:36:18.600Z,100431.72
2023-06-20T10:39:23.953Z,100427.78
2023-06-20T10:42:41.874Z,100418.63
2023-06-20T10:46:01.330Z,100418.50
2023-06-20T10:49:09.555Z,100416.56
2023-06-20T10:52:12.865Z,100410.75
2023-06-20T10:55:23.848Z,100414.50
2023-06-20T10:58:33.277Z,100414.25
2023-06-20T11:01:39.534Z,100397.34
2023-06-20T11:04:43.078Z,100387.47
2023-06-20T11:07:56.420Z,100395.16
2023-06-20T11:11:02.481Z,100403.81
2023-06-20T11:14:16.749Z,100399.38
2023-06-20T11:17:19.916Z,100400.34
2023-06-20T11:20:25.801Z,100394.34
2023-06-20T11:23:37.168Z,100397.31
2023-06-20T11:26:40.390Z,100404.78
2023-06-20T11:29:43.740Z,100408.41
2023-06-20T11:33:10.942Z,100393.56
2023-06-20T11:36:16.991Z,100399.56
2023-06-20T11:39:20.059Z,100397.06
2023-06-20T11:42:23.127Z,100395.34
2023-06-20T11:45:29.273Z,100400.38
2023-06-20T11:48:32.718Z,100399.44
2023-06-20T11:51:39.480Z,100387.69
2023-06-20T11:54:53.263Z,100383.03
2023-06-20T11:57:56.934Z,100390.72
2023-06-20T12:01:12.527Z,100378.09
2023-06-20T12:04:21.279Z,100383.13
2023-06-20T12:07:28.764Z,100380.94
2023-06-20T12:10:32.661Z,100372.31
2023-06-20T12:13:36.312Z,100374.19
2023-06-20T12:16:40.004Z,100373.13
2023-06-20T12:19:54.486Z,100370.00
2023-06-20T12:22:58.949Z,100369.13
2023-06-20T12:26:02.196Z,100368.41
2023-06-20T12:29:06.179Z,100364.41
2023-06-20T12:32:10.992Z,100365.13
2023-06-20T12:35:14.165Z,100359.19
2023-06-20T12:38:17.246Z,100355.91
2023-06-20T12:41:21.632Z,100355.72
2023-06-20T12:44:24.604Z,100353.09
2023-06-20T12:47:27.935Z,100350.22
2023-06-20T12:50:32.680Z,100351.59
2023-06-20T12:53:36.602Z,100348.03
2023-06-20T12:56:42.224Z,100337.91
2023-06-20T12:59:45.549Z,100342.63
2023-06-20T13:02:48.497Z,100330.97
2023-06-20T13:05:51.420Z,100335.59
2023-06-20T13:08:54.504Z,100336.16
2023-06-20T13:11:57.849Z,100330.16
2023-06-20T13:15:06.474Z,100330.75
2023-06-20T13:18:11.264Z,100337.81
2023-06-20T13:21:15.596Z,100335.44
2023-06-20T13:24:18.865Z,100331.09
2023-06-20T13:27:22.042Z,100339.34
2023-06-20T13:30:28.777Z,100337.75
2023-06-20T13:33:32.444Z,100333.75
2023-06-20T13:36:35.606Z,100340.66
2023-06-20T13:39:38.706Z,100331.47
2023-06-20T13:42:43.802Z,100322.31
2023-06-20T13:45:47.191Z,100320.69
2023-06-20T13:48:51.891Z,100320.50
2023-06-20T13:51:55.927Z,100320.41
2023-06-20T13:54:59.026Z,100323.97
2023-06-20T13:58:02.440Z,100315.31
2023-06-20T14:01:08.688Z,100325.16
2023-06-20T14:04:12.432Z,100311.44
2023-06-20T14:07:15.969Z,100311.47
2023-06-20T14:10:19.081Z,100305.44
2023-06-20T14:13:22.711Z,100307.69
2023-06-20T14:16:26.572Z,100310.28
2023-06-20T14:19:33.585Z,100307.47
2023-06-20T14:22:37.551Z,100299.09
2023-06-20T14:25:41.046Z,100307.88
2023-06-20T14:28:45.457Z,100306.25
2023-06-20T14:31:48.734Z,100297.00
2023-06-20T14:34:51.813Z,100299.75
2023-06-20T14:37:54.928Z,100295.91
2023-06-20T14:40:58.469Z,100298.16
2023-06-20T14:44:01.657Z,100297.41
2023-06-20T14:47:05.060Z,100289.91
2023-06-20T14:50:09.165Z,100297.81
2023-06-20T14:53:12.433Z,100295.34
2023-06-20T14:56:16.065Z,100287.50
2023-06-20T14:59:19.194Z,100286.94
2023-06-20T15:02:23.041Z,100285.84
2023-06-20T15:05:26.206Z,100277.25
2023-06-20T15:08:30.655Z,100278.63
2023-06-20T15:11:33.669Z,100279.28
2023-06-20T15:14:36.789Z,100279.66
2023-06-20T15:17:39.805Z,100269.63
2023-06-20T15:20:43.325Z,100273.03
2023-06-20T15:23:46.504Z,100270.91
2023-06-20T15:26:49.731Z,100279.44
2023-06-20T15:29:53.203Z,100277.97
2023-06-20T15:32:56.662Z,100277.00
2023-06-20T15:35:59.823Z,100262.63
2023-06-20T15:39:04.149Z,100268.41
2023-06-20T15:42:07.733Z,100265.38
2023-06-20T15:45:13.784Z,100266.47
2023-06-20T15:48:17.140Z,100268.66
2023-06-20T15:51:21.438Z,100268.16
2023-06-20T15:54:24.739Z,100263.91
2023-06-20T15:57:28.130Z,100263.38
2023-06-20T16:00:31.109Z,100262.47
2023-06-20T16:03:34.227Z,100263.38
2023-06-20T16:06:37.695Z,100254.81
2023-06-20T16:09:40.967Z,100258.97
2023-06-20T16:12:44.469Z,100256.94
2023-06-20T16:15:47.625Z,100261.06
2023-06-20T16:18:52.410Z,100253.53
2023-06-20T16:21:55.457Z,100257.03
2023-06-20T16:24:58.499Z,100260.03
2023-06-20T16:28:01.519Z,100264.81
2023-06-20T16:31:05.375Z,100262.53
2023-06-20T16:34:11.924Z,100260.94
2023-06-20T16:37:15.046Z,100259.88
2023-06-20T16:40:18.987Z,100259.25
2023-06-20T16:43:23.898Z,100261.41
2023-06-20T16:46:27.174Z,100258.81
2023-06-20T16:49:31.786Z,100258.88
2023-06-20T16:52:35.026Z,100257.94
2023-06-20T16:55:39.522Z,100254.72
2023-06-20T16:58:42.938Z,100256.63
2023-06-20T17:01:47.088Z,100251.16
2023-06-20T17:04:50.677Z,100252.44
2023-06-20T17:07:54.510Z,100249.00
2023-06-20T17:10:57.686Z,100246.50
2023-06-20T17:14:01.541Z,100253.94
2023-06-20T17:17:04.997Z,100249.41
2023-06-20T17:20:08.703Z,100244.91
2023-06-20T17:23:11.892Z,100245.97
2023-06-20T17:26:15.204Z,100245.97
2023-06-20T17:29:18.640Z,100248.75
2023-06-20T17:32:22.174Z,100247.34
2023-06-20T17:35:25.459Z,100235.75
2023-06-20T17:38:28.476Z,100237.63
2023-06-20T17:41:31.708Z,100241.59
2023-06-20T17:44:35.057Z,100243.41
2023-06-20T17:47:38.429Z,100243.28
2023-06-20T17:50:41.616Z,100240.13
2023-06-20T17:53:45.223Z,100237.13
2023-06-20T17:56:49.550Z,100239.44
2023-06-20T17:59:53.066Z,100248.47
2023-06-20T18:02:56.562Z,100246.50
2023-06-20T18:05:59.720Z,100246.66
2023-06-20T18:09:02.832Z,100238.66
2023-06-20T18:12:07.331Z,100242.06
2023-06-20T18:15:11.086Z,100241.91
2023-06-20T18:18:14.488Z,100246.28
2023-06-20T18:21:17.640Z,100239.50
2023-06-20T18:24:20.811Z,100240.84
2023-06-20T18:27:24.908Z,100245.50
2023-06-20T18:30:28.420Z,100246.56
2023-06-20T18:33:31.815Z,100240.38
2023-06-20T18:36:36.101Z,100234.81
2023-06-20T18:39:39.599Z,100245.91
2023-06-20T18:42:42.837Z,100249.03
2023-06-20T18:45:46.861Z,100250.91
2023-06-20T18:48:50.329Z,100244.91
2023-06-20T18:51:54.728Z,100250.31
2023-06-20T18:54:57.921Z,100251.88
2023-06-20T18:58:01.002Z,100255.78
2023-06-20T19:01:05.649Z,100255.59
2023-06-20T19:04:08.797Z,100252.59
2023-06-20T19:07:12.005Z,100260.22
2023-06-20T19:10:15.394Z,100257.78
2023-06-20T19:13:19.013Z,100261.09
2023-06-20T19:16:22.674Z,100268.22
2023-06-20T19:19:25.869Z,100274.31
2023-06-20T19:22:28.904Z,100269.53
2023-06-20T19:25:33.882Z,100280.00
2023-06-20T19:28:38.795Z,100291.41
2023-06-20T19:31:45.473Z,100288.44
2023-06-20T19:34:50.146Z,100279.81
2023-06-20T19:37:53.691Z,100281.13
2023-06-20T19:40:58.404Z,100278.91
2023-06-20T19:44:01.893Z,100288.25
2023-06-20T19:47:05.248Z,100279.47
2023-06-20T19:50:09.172Z,100277.75
2023-06-20T19:53:12.603Z,100283.34
2023-06-20T19:56:15.994Z,100270.22
2023-06-20T19:59:19.213Z,100280.81
2023-06-20T20:02:27.841Z,100278.84
2023-06-20T20:05:31.071Z,100292.50
2023-06-20T20:08:34.114Z,100288.44
2023-06-20T20:11:37.111Z,100289.22
2023-06-20T20:14:40.447Z,100285.44
2023-06-20T20:17:43.436Z,100294.53
2023-06-20T20:20:46.857Z,100286.94
2023-06-20T20:23:50.015Z,100285.97
2023-06-20T20:26:54.068Z,100290.75
2023-06-20T20:29:57.264Z,100288.00
2023-06-20T20:33:00.377Z,100292.28
2023-06-20T20:36:03.548Z,100291.56
2023-06-20T20:39:06.541Z,100297.84
2023-06-20T20:42:10.246Z,100297.34
2023-06-20T20:45:13.305Z,100299.63
2023-06-20T20:48:16.344Z,100304.41
2023-06-20T20:51:21.387Z,100305.41
2023-06-20T20:54:24.986Z,100310.44
2023-06-20T20:57:28.403Z,100312.47
2023-06-20T21:00:31.473Z,100316.53
2023-06-20T21:03:35.166Z,100307.41
2023-06-20T21:06:38.693Z,100316.22
2023-06-20T21:09:41.907Z,100309.41
2023-06-20T21:12:45.410Z,100311.13
2023-06-20T21:15:48.761Z,100299.81
2023-06-20T21:18:51.855Z,100300.53
2023-06-20T21:21:55.424Z,100298.53
2023-06-20T21:24:58.654Z,100306.31
2023-06-20T21:28:01.851Z,100308.88
2023-06-20T21:31:05.354Z,100304.31
2023-06-20T21:34:08.547Z,100303.81
2023-06-20T21:37:12.013Z,100309.09
2023-06-20T21:40:15.287Z,100301.47
2023-06-20T21:43:18.384Z,100303.75
2023-06-20T21:46:24.164Z,100300.44
2023-06-20T21:49:27.899Z,100305.47
2023-06-20T21:52:30.938Z,100309.78
2023-06-20T21:55:34.456Z,100295.59
2023-06-20T21:58:37.772Z,100308.91
2023-06-20T22:01:41.101Z,100309.38
2023-06-20T22:04:44.481Z,100305.88
2023-06-20T22:07:47.868Z,100310.91
2023-06-20T22:10:59.797Z,100318.13
2023-06-20T22:14:03.643Z,100312.06
2023-06-20T22:17:06.901Z,100308.44
2023-06-20T22:20:13.298Z,100307.19
2023-06-20T22:23:16.656Z,100314.41
2023-06-20T22:26:19.938Z,100314.59
2023-06-20T22:29:22.909Z,100316.06
2023-06-20T22:32:25.956Z,100307.78
2023-06-20T22:35:29.094Z,100306.81
2023-06-20T22:38:32.436Z,100298.25
2023-06-20T22:41:35.453Z,100289.59
2023-06-20T22:44:38.555Z,100285.81
2023-06-20T22:47:41.987Z,100286.25
2023-06-20T22:50:46.045Z,100281.16
2023-06-20T22:53:49.573Z,100280.28
2023-06-20T22:56:53.786Z,100287.00
2023-06-20T22:59:56.763Z,100289.72
2023-06-20T23:02:59.899Z,100283.09
2023-06-20T23:06:03.028Z,100279.00
2023-06-20T23:09:06.937Z,100287.50
2023-06-20T23:12:10.879Z,100284.69
2023-06-20T23:15:14.210Z,100271.84
2023-06-20T23:18:23.627Z,100282.63
2023-06-20T23:21:27.210Z,100287.84
2023-06-20T23:24:30.164Z,100293.19
2023-06-20T23:27:39.034Z,100289.25
2023-06-20T23:30:45.351Z,100287.00
2023-06-20T23:33:51.619Z,100293.03
2023-06-20T23:36:54.855Z,100293.97
2023-06-20T23:39:57.838Z,100297.94
2023-06-20T23:43:01.206Z,100297.13
2023-06-20T23:49:07.721Z,100294.41
2023-06-20T23:52:10.773Z,100302.97
2023-06-20T23:55:14.067Z,100302.16
2023-06-20T23:58:17.447Z,100301.13
